Marianne Danica — OWWO2 — position and weather

sailwx.info

Track history (hours):
 
Tides and Currents Weather Stations Pressure Air Temp Water Temp Dewpoint Dewpoint Depression Visibility Wind Speed Wind Dir Waves Ship Positions

Marianne Danica

Last reported at 2014-Aug-21 22:32 UTC. Time now 2014-Aug-30 00:30 UTC.
Position N 01°15' E 103°43'.
Warning: this ship's position is 8 days out of date.

Length 71 m; draft 3.4 m.

Type: Ship (hazmat cat A). MMSI: 219544000.

Date/timePositionNaut miles runAvg speedWind from/ knotsBaromVisibWave heightAir tempDewpointWater temp
2014-Aug-21 22:32N 01°15' E 103°43'6 0.2
2014-Aug-20 21:15N 01°14' E 103°49'0 0.0
2014-Aug-20 20:27N 01°14' E 103°49'0 0.0
2014-Aug-20 19:33N 01°14' E 103°49'0 0.0
2014-Aug-20 18:33N 01°14' E 103°49'0 0.0
2014-Aug-20 17:33N 01°14' E 103°49'0 0.0
2014-Aug-20 16:24N 01°14' E 103°49'0 0.0
2014-Aug-20 15:30N 01°14' E 103°49'0 0.0
2014-Aug-20 11:33N 01°14' E 103°49'0 0.0
2014-Aug-20 06:05N 01°14' E 103°49'0 0.0
2014-Aug-19 12:33N 01°14' E 103°49'7 7.0
2014-Aug-19 11:33N 01°14' E 103°56'7 6.8
2014-Aug-19 10:33N 01°16' E 104°03'  
2014-Aug-12 04:30N 22°11' E 119°54'9 9.5
2014-Aug-12 03:32N 22°20' E 119°54'9 8.9
2014-Aug-12 02:32N 22°29' E 119°55'8 8.6
2014-Aug-12 01:33N 22°38' E 119°55'9 8.6
2014-Aug-12 00:33N 22°46' E 119°55'9 8.4
2014-Aug-11 23:31N 22°55' E 119°55'  
Track history (hours):
 
Tides and Currents Weather Stations Pressure Air Temp Water Temp Dewpoint Dewpoint Depression Visibility Wind Speed Wind Dir Waves Ship Positions

Marianne Danica

Last reported at 2014-Aug-21 22:32 UTC. Time now 2014-Aug-30 00:30 UTC.
Position N 01°15' E 103°43'.
Warning: this ship's position is 8 days out of date.

Length 71 m; draft 3.4 m.

Type: Ship (hazmat cat A). MMSI: 219544000.

Date/timePositionNaut miles runAvg speedWind from/ knotsBaromVisibWave heightAir tempDewpointWater temp
2014-Aug-21 22:32N 01°15' E 103°43'6 0.2
2014-Aug-20 21:15N 01°14' E 103°49'0 0.0
2014-Aug-20 20:27N 01°14' E 103°49'0 0.0
2014-Aug-20 19:33N 01°14' E 103°49'0 0.0
2014-Aug-20 18:33N 01°14' E 103°49'0 0.0
2014-Aug-20 17:33N 01°14' E 103°49'0 0.0
2014-Aug-20 16:24N 01°14' E 103°49'0 0.0
2014-Aug-20 15:30N 01°14' E 103°49'0 0.0
2014-Aug-20 11:33N 01°14' E 103°49'0 0.0
2014-Aug-20 06:05N 01°14' E 103°49'0 0.0
2014-Aug-19 12:33N 01°14' E 103°49'7 7.0
2014-Aug-19 11:33N 01°14' E 103°56'7 6.8
2014-Aug-19 10:33N 01°16' E 104°03'  
2014-Aug-12 04:30N 22°11' E 119°54'9 9.5
2014-Aug-12 03:32N 22°20' E 119°54'9 8.9
2014-Aug-12 02:32N 22°29' E 119°55'8 8.6
2014-Aug-12 01:33N 22°38' E 119°55'9 8.6
2014-Aug-12 00:33N 22°46' E 119°55'9 8.4
2014-Aug-11 23:31N 22°55' E 119°55'  

Dump ship's entire track history